createdAt,value
2019-04-14T00:01:56.839Z,-1.90
2019-04-14T00:04:27.018Z,-2.00
2019-04-14T00:06:55.480Z,-2.00
2019-04-14T00:09:25.043Z,-2.00
2019-04-14T00:11:54.685Z,-2.00
2019-04-14T00:14:23.455Z,-1.90
2019-04-14T00:16:52.948Z,-1.80
2019-04-14T00:19:21.807Z,-1.80
2019-04-14T00:21:50.523Z,-1.80
2019-04-14T00:24:19.073Z,-1.80
2019-04-14T00:26:48.693Z,-1.70
2019-04-14T00:29:17.441Z,-1.70
2019-04-14T00:31:45.916Z,-1.70
2019-04-14T00:34:22.439Z,-1.60
2019-04-14T00:37:11.992Z,-1.60
2019-04-14T00:39:42.261Z,-1.60
2019-04-14T00:42:19.035Z,-1.60
2019-04-14T00:44:49.577Z,-1.60
2019-04-14T00:47:20.066Z,-1.60
2019-04-14T00:49:48.760Z,-1.60
2019-04-14T00:52:17.496Z,-1.60
2019-04-14T00:54:46.336Z,-1.70
2019-04-14T00:57:15.817Z,-1.70
2019-04-14T00:59:44.868Z,-1.80
2019-04-14T01:02:14.491Z,-1.80
2019-04-14T01:04:43.137Z,-1.80
2019-04-14T01:07:11.606Z,-1.70
2019-04-14T01:09:41.182Z,-1.70
2019-04-14T01:12:10.302Z,-1.70
2019-04-14T01:14:38.911Z,-1.80
2019-04-14T01:17:07.445Z,-1.70
2019-04-14T01:19:35.923Z,-1.70
2019-04-14T01:22:05.354Z,-1.70
2019-04-14T01:24:34.002Z,-1.70
2019-04-14T01:27:03.824Z,-1.70
2019-04-14T01:29:32.428Z,-1.70
2019-04-14T01:32:04.436Z,-1.70
2019-04-14T01:34:33.112Z,-1.70
2019-04-14T01:37:03.154Z,-1.70
2019-04-14T01:39:32.773Z,-1.50
2019-04-14T01:42:02.876Z,-1.30
2019-04-14T01:44:31.374Z,-1.10
2019-04-14T01:47:00.980Z,-1.00
2019-04-14T01:49:29.542Z,-1.00
2019-04-14T01:51:59.652Z,-1.00
2019-04-14T01:54:29.963Z,-0.90
2019-04-14T01:57:00.297Z,-0.80
2019-04-14T01:59:28.792Z,-0.70
2019-04-14T02:01:58.702Z,-0.70
2019-04-14T02:04:27.408Z,-0.80
2019-04-14T02:06:55.872Z,-0.80
2019-04-14T02:09:25.151Z,-0.80
2019-04-14T02:11:53.668Z,-0.90
2019-04-14T02:14:23.266Z,-0.90
2019-04-14T02:16:56.093Z,-0.80
2019-04-14T02:19:22.080Z,-0.80
2019-04-14T02:21:51.909Z,-0.70
2019-04-14T02:24:20.577Z,-0.70
2019-04-14T02:26:50.183Z,-0.70
2019-04-14T02:29:19.051Z,-0.60
2019-04-14T02:32:18.581Z,-0.70
2019-04-14T02:35:00.329Z,-0.60
2019-04-14T02:37:26.166Z,-0.60
2019-04-14T02:39:48.249Z,-0.60
2019-04-14T02:44:47.289Z,-0.60
2019-04-14T02:47:40.962Z,-0.60
2019-04-14T02:50:08.771Z,-0.60
2019-04-14T02:54:52.228Z,-0.60
2019-04-14T02:57:19.050Z,-0.60
2019-04-14T03:02:40.924Z,-0.60
2019-04-14T03:04:50.769Z,-0.60
2019-04-14T03:07:26.419Z,-0.70
2019-04-14T03:12:16.712Z,-0.80
2019-04-14T03:14:57.080Z,-0.80
2019-04-14T03:20:20.450Z,-0.80
2019-04-14T03:23:02.032Z,-0.90
2019-04-14T03:25:06.044Z,-0.80
2019-04-14T03:33:17.459Z,-0.90
2019-04-14T03:38:11.310Z,-1.00
2019-04-14T03:40:34.341Z,-1.20
2019-04-14T03:43:22.607Z,-1.20
2019-04-14T03:48:36.459Z,-1.30
2019-04-14T03:53:06.004Z,-1.30
2019-04-14T03:55:20.455Z,-1.30
2019-04-14T03:57:39.035Z,-1.20
2019-04-14T04:00:07.701Z,-1.20
2019-04-14T04:02:36.176Z,-1.20
2019-04-14T04:05:06.455Z,-1.20
2019-04-14T04:07:35.116Z,-1.20
2019-04-14T04:10:07.121Z,-1.30
2019-04-14T04:12:35.800Z,-1.30
2019-04-14T04:15:06.085Z,-1.30
2019-04-14T04:17:43.028Z,-1.30
2019-04-14T04:20:13.187Z,-1.30
2019-04-14T04:22:52.301Z,-1.30
2019-04-14T04:25:25.451Z,-1.30
2019-04-14T04:28:04.087Z,-1.40
2019-04-14T04:30:36.691Z,-1.40
2019-04-14T04:33:26.080Z,-1.30
2019-04-14T04:35:56.547Z,-1.40
2019-04-14T04:38:29.639Z,-1.40
2019-04-14T04:40:59.296Z,-1.40
2019-04-14T04:43:27.934Z,-1.40
2019-04-14T04:45:56.399Z,-1.30
2019-04-14T04:48:24.872Z,-1.30
2019-04-14T04:50:54.228Z,-1.20
2019-04-14T04:53:22.797Z,-1.10
2019-04-14T04:55:52.404Z,-1.10
2019-04-14T04:58:21.643Z,-1.00
2019-04-14T05:00:52.546Z,-0.90
2019-04-14T05:03:21.100Z,-0.80
2019-04-14T05:06:11.272Z,-0.80
2019-04-14T05:08:41.460Z,-0.80
2019-04-14T05:11:27.323Z,-0.60
2019-04-14T05:13:57.636Z,-0.60
2019-04-14T05:16:26.123Z,-0.50
2019-04-14T05:18:55.207Z,-0.40
2019-04-14T05:21:23.828Z,-0.30
2019-04-14T05:23:52.309Z,-0.40
2019-04-14T05:26:21.966Z,-0.40
2019-04-14T05:28:50.753Z,-0.40
2019-04-14T05:31:19.242Z,-0.40
2019-04-14T05:33:48.932Z,-0.40
2019-04-14T05:36:17.572Z,-0.20
2019-04-14T05:38:47.300Z,-0.10
2019-04-14T05:41:15.992Z,0.00
2019-04-14T05:43:50.191Z,0.00
2019-04-14T05:46:14.645Z,0.10
2019-04-14T05:48:43.096Z,0.20
2019-04-14T05:51:11.577Z,0.20
2019-04-14T05:53:40.047Z,0.20
2019-04-14T05:56:08.488Z,0.30
2019-04-14T05:58:38.168Z,0.40
2019-04-14T06:01:06.987Z,0.30
2019-04-14T06:03:36.404Z,0.40
2019-04-14T06:06:05.016Z,0.50
2019-04-14T06:08:33.489Z,0.60
2019-04-14T06:11:01.927Z,0.70
2019-04-14T06:13:30.406Z,0.90
2019-04-14T06:15:58.856Z,1.00
2019-04-14T06:18:27.316Z,1.10
2019-04-14T06:20:55.789Z,1.30
2019-04-14T06:23:24.273Z,1.10
2019-04-14T06:25:52.741Z,1.10
2019-04-14T06:28:21.180Z,1.20
2019-04-14T06:31:09.001Z,1.20
2019-04-14T06:33:42.865Z,1.10
2019-04-14T06:36:12.976Z,1.10
2019-04-14T06:38:45.728Z,1.10
2019-04-14T06:41:15.980Z,1.10
2019-04-14T06:43:49.037Z,1.10
2019-04-14T06:46:14.599Z,1.00
2019-04-14T06:48:43.077Z,1.10
2019-04-14T06:51:11.608Z,1.10
2019-04-14T06:53:40.076Z,1.20
2019-04-14T06:56:08.555Z,1.30
2019-04-14T06:58:37.024Z,1.30
2019-04-14T07:01:05.496Z,1.30
2019-04-14T07:03:33.960Z,1.20
2019-04-14T07:06:02.400Z,1.20
2019-04-14T07:08:30.871Z,1.10
2019-04-14T07:10:59.312Z,1.20
2019-04-14T07:13:27.797Z,1.20
2019-04-14T07:15:56.231Z,1.10
2019-04-14T07:18:24.681Z,0.90
2019-04-14T07:20:53.141Z,0.80
2019-04-14T07:23:21.584Z,0.80
2019-04-14T07:25:50.048Z,0.90
2019-04-14T07:28:18.519Z,0.80
2019-04-14T07:31:04.919Z,0.70
2019-04-14T07:33:38.108Z,0.70
2019-04-14T07:36:14.188Z,0.60
2019-04-14T07:39:02.092Z,0.80
2019-04-14T07:41:34.894Z,0.70
2019-04-14T07:44:07.464Z,0.70
2019-04-14T07:46:40.596Z,0.50
2019-04-14T07:49:16.676Z,0.50
2019-04-14T07:51:53.020Z,0.70
2019-04-14T07:54:23.124Z,0.90
2019-04-14T07:57:04.965Z,0.90
2019-04-14T07:59:41.085Z,1.00
2019-04-14T08:02:11.199Z,1.20
2019-04-14T08:04:41.311Z,1.20
2019-04-14T08:07:09.765Z,1.10
2019-04-14T08:09:38.217Z,1.10
2019-04-14T08:12:06.680Z,1.10
2019-04-14T08:14:35.142Z,1.30
2019-04-14T08:17:03.679Z,1.40
2019-04-14T08:19:32.137Z,1.30
2019-04-14T08:22:01.996Z,1.30
2019-04-14T08:24:30.466Z,1.20
2019-04-14T08:26:58.918Z,1.10
2019-04-14T08:29:27.386Z,1.10
2019-04-14T08:31:55.851Z,1.00
2019-04-14T08:34:24.293Z,0.90
2019-04-14T08:36:52.753Z,0.90
2019-04-14T08:39:21.200Z,1.00
2019-04-14T08:41:51.380Z,1.00
2019-04-14T08:44:24.449Z,0.90
2019-04-14T08:47:09.659Z,1.00
2019-04-14T08:49:45.480Z,0.90
2019-04-14T08:52:24.573Z,0.90
2019-04-14T08:55:13.046Z,1.00
2019-04-14T08:57:43.136Z,1.00
2019-04-14T09:00:13.389Z,0.90
2019-04-14T09:02:43.487Z,0.90
2019-04-14T09:05:13.665Z,1.00
2019-04-14T09:07:49.458Z,0.90
2019-04-14T09:10:19.568Z,1.00
2019-04-14T09:12:49.652Z,1.10
2019-04-14T09:15:18.121Z,1.20
2019-04-14T09:17:46.564Z,1.40
2019-04-14T09:20:15.180Z,1.60
2019-04-14T09:22:43.621Z,1.70
2019-04-14T09:25:12.165Z,1.80
2019-04-14T09:27:40.609Z,1.90
2019-04-14T09:30:09.647Z,1.90
2019-04-14T09:32:38.120Z,2.00
2019-04-14T09:35:08.879Z,2.10
2019-04-14T09:37:37.350Z,2.00
2019-04-14T09:40:06.329Z,1.90
2019-04-14T09:45:11.096Z,1.70
2019-04-14T09:47:39.575Z,1.60
2019-04-14T09:50:08.085Z,1.70
2019-04-14T09:52:36.531Z,1.90
2019-04-14T09:55:06.640Z,2.00
2019-04-14T09:57:35.087Z,2.10
2019-04-14T10:00:05.160Z,2.00
2019-04-14T10:02:33.628Z,2.20
2019-04-14T10:05:02.089Z,2.20
2019-04-14T10:07:30.632Z,2.10
2019-04-14T10:09:59.176Z,2.10
2019-04-14T10:12:27.703Z,1.90
2019-04-14T10:14:56.169Z,1.80
2019-04-14T10:17:24.640Z,1.80
2019-04-14T10:19:53.105Z,1.70
2019-04-14T10:22:33.164Z,1.60
2019-04-14T10:24:51.805Z,1.70
2019-04-14T10:27:20.243Z,1.90
2019-04-14T10:29:48.719Z,2.00
2019-04-14T10:32:17.156Z,2.30
2019-04-14T10:34:45.601Z,2.40
2019-04-14T10:37:14.072Z,2.30
2019-04-14T10:39:42.537Z,2.10
2019-04-14T10:42:10.987Z,2.20
2019-04-14T10:44:39.444Z,2.30
2019-04-14T10:47:07.963Z,2.50
2019-04-14T10:49:36.576Z,2.60
2019-04-14T10:52:05.902Z,2.50
2019-04-14T10:54:34.420Z,2.50
2019-04-14T10:57:02.892Z,2.50
2019-04-14T10:59:31.365Z,2.40
2019-04-14T11:01:59.812Z,2.40
2019-04-14T11:04:28.252Z,2.40
2019-04-14T11:07:10.605Z,2.20
2019-04-14T11:09:39.043Z,2.10
2019-04-14T11:12:07.511Z,2.20
2019-04-14T11:14:35.972Z,2.40
2019-04-14T11:17:04.441Z,2.50
2019-04-14T11:19:32.887Z,2.60
2019-04-14T11:22:01.733Z,2.60
2019-04-14T11:24:30.172Z,2.70
2019-04-14T11:26:58.657Z,2.90
2019-04-14T11:29:27.130Z,3.00
2019-04-14T11:32:15.408Z,3.00
2019-04-14T11:34:45.512Z,2.90
2019-04-14T11:37:21.664Z,2.70
2019-04-14T11:39:50.208Z,2.60
2019-04-14T11:42:18.649Z,2.60
2019-04-14T11:44:47.201Z,2.80
2019-04-14T11:47:16.403Z,2.90
2019-04-14T11:49:44.996Z,3.00
2019-04-14T11:52:13.466Z,2.90
2019-04-14T11:54:41.919Z,2.70
2019-04-14T11:57:10.469Z,2.70
2019-04-14T11:59:52.828Z,2.80
2019-04-14T12:02:34.836Z,2.60
2019-04-14T12:05:07.646Z,2.60
2019-04-14T12:07:40.454Z,2.60
2019-04-14T12:10:10.936Z,2.50
2019-04-14T12:12:39.400Z,2.30
2019-04-14T12:15:08.188Z,2.30
2019-04-14T12:17:36.656Z,2.20
2019-04-14T12:20:06.936Z,2.10
2019-04-14T12:22:35.408Z,2.00
2019-04-14T12:25:04.320Z,2.10
2019-04-14T12:27:32.783Z,2.20
2019-04-14T12:30:01.322Z,2.30
2019-04-14T12:32:29.932Z,2.40
2019-04-14T12:34:58.840Z,2.40
2019-04-14T12:37:27.285Z,2.30
2019-04-14T12:39:55.752Z,2.30
2019-04-14T12:42:31.644Z,2.20
2019-04-14T12:45:16.727Z,2.20
2019-04-14T12:47:46.897Z,2.20
2019-04-14T12:50:17.716Z,2.20
2019-04-14T12:52:46.188Z,2.10
2019-04-14T12:55:15.097Z,2.00
2019-04-14T12:57:48.096Z,2.00
2019-04-14T13:00:34.672Z,2.10
2019-04-14T13:03:03.131Z,2.20
2019-04-14T13:05:31.596Z,2.20
2019-04-14T13:08:01.108Z,2.20
2019-04-14T13:10:29.644Z,2.20
2019-04-14T13:12:58.175Z,2.20
2019-04-14T13:15:26.649Z,2.30
2019-04-14T13:17:55.120Z,2.20
2019-04-14T13:20:23.584Z,2.10
2019-04-14T13:22:52.056Z,2.10
2019-04-14T13:25:20.564Z,2.00
2019-04-14T13:27:50.272Z,2.10
2019-04-14T13:30:20.384Z,2.10
2019-04-14T13:32:48.830Z,2.30
2019-04-14T13:35:17.272Z,2.10
2019-04-14T13:37:45.965Z,2.20
2019-04-14T13:40:14.596Z,2.30
2019-04-14T13:42:43.065Z,2.40
2019-04-14T13:45:11.698Z,2.40
2019-04-14T13:47:40.160Z,2.50
2019-04-14T13:50:08.762Z,2.50
2019-04-14T13:52:46.583Z,2.40
2019-04-14T13:55:07.929Z,2.40
2019-04-14T13:57:36.630Z,2.40
2019-04-14T14:00:10.800Z,2.40
2019-04-14T14:02:39.308Z,2.50
2019-04-14T14:05:07.916Z,2.60
2019-04-14T14:07:36.404Z,2.60
2019-04-14T14:10:10.294Z,2.60
2019-04-14T14:12:55.659Z,2.60
2019-04-14T14:15:31.711Z,2.50
2019-04-14T14:18:14.134Z,2.50
2019-04-14T14:20:44.265Z,2.50
2019-04-14T14:23:33.376Z,2.50
2019-04-14T14:26:06.228Z,2.60
2019-04-14T14:28:34.810Z,2.60
2019-04-14T14:31:03.524Z,2.70
2019-04-14T14:33:34.106Z,2.50
2019-04-14T14:36:02.317Z,2.60
2019-04-14T14:38:30.808Z,2.60
2019-04-14T14:41:00.996Z,2.60
2019-04-14T14:43:29.471Z,2.60
2019-04-14T14:46:05.729Z,2.60
2019-04-14T14:48:35.852Z,2.50
2019-04-14T14:51:05.990Z,2.50
2019-04-14T14:53:34.479Z,2.40
2019-04-14T14:56:03.033Z,2.30
2019-04-14T14:58:31.499Z,2.40
2019-04-14T15:01:01.331Z,2.40
2019-04-14T15:03:29.848Z,2.30
2019-04-14T15:05:58.341Z,2.30
2019-04-14T15:08:26.861Z,2.20
2019-04-14T15:10:55.345Z,2.10
2019-04-14T15:13:23.796Z,2.20
2019-04-14T15:15:52.334Z,2.20
2019-04-14T15:18:20.848Z,2.30
2019-04-14T15:20:49.345Z,2.30
2019-04-14T15:23:24.741Z,2.30
2019-04-14T15:25:47.965Z,2.40
2019-04-14T15:28:16.465Z,2.30
2019-04-14T15:30:44.995Z,2.20
2019-04-14T15:33:13.565Z,2.20
2019-04-14T15:35:42.144Z,2.20
2019-04-14T15:38:10.592Z,2.30
2019-04-14T15:40:39.079Z,2.30
2019-04-14T15:43:09.086Z,2.30
2019-04-14T15:45:37.722Z,2.30
2019-04-14T15:48:06.296Z,2.30
2019-04-14T15:50:34.765Z,2.20
2019-04-14T15:53:03.217Z,2.20
2019-04-14T15:55:31.754Z,2.10
2019-04-14T15:58:13.404Z,2.20
2019-04-14T16:00:46.318Z,2.30
2019-04-14T16:03:19.436Z,2.30
2019-04-14T16:05:49.591Z,2.30
2019-04-14T16:08:19.736Z,2.30
2019-04-14T16:10:49.928Z,2.40
2019-04-14T16:13:38.398Z,2.40
2019-04-14T16:16:15.061Z,2.40
2019-04-14T16:18:48.292Z,2.30
2019-04-14T16:21:16.736Z,2.40
2019-04-14T16:23:50.778Z,2.40
2019-04-14T16:26:22.721Z,2.30
2019-04-14T16:29:02.706Z,2.30
2019-04-14T16:31:49.516Z,2.20
2019-04-14T16:34:19.646Z,2.30
2019-04-14T16:36:49.864Z,2.20
2019-04-14T16:39:18.347Z,2.20
2019-04-14T16:41:47.025Z,2.20
2019-04-14T16:44:15.557Z,2.20
2019-04-14T16:46:44.100Z,2.20
2019-04-14T16:49:12.593Z,2.20
2019-04-14T16:51:51.703Z,2.20
2019-04-14T16:54:21.810Z,2.20
2019-04-14T16:56:57.453Z,2.20
2019-04-14T16:59:25.939Z,2.20
2019-04-14T17:01:54.489Z,2.20
2019-04-14T17:04:23.058Z,2.10
2019-04-14T17:06:51.633Z,2.10
2019-04-14T17:09:20.166Z,2.10
2019-04-14T17:11:49.089Z,2.10
2019-04-14T17:14:28.667Z,2.10
2019-04-14T17:16:58.860Z,2.00
2019-04-14T17:19:28.976Z,2.10
2019-04-14T17:22:02.060Z,2.10
2019-04-14T17:24:34.957Z,2.10
2019-04-14T17:27:07.847Z,2.00
2019-04-14T17:29:40.978Z,2.10
2019-04-14T17:32:13.831Z,2.00
2019-04-14T17:34:52.646Z,2.00
2019-04-14T17:37:22.736Z,2.00
2019-04-14T17:40:04.477Z,2.00
2019-04-14T17:42:37.516Z,2.10
2019-04-14T17:45:15.227Z,2.10
2019-04-14T17:47:51.139Z,2.10
2019-04-14T17:50:26.755Z,2.10
2019-04-14T17:53:02.622Z,2.10
2019-04-14T17:55:32.908Z,2.00
2019-04-14T17:58:22.961Z,2.10
2019-04-14T18:00:53.688Z,2.10
2019-04-14T18:03:29.929Z,2.10
2019-04-14T18:06:05.733Z,2.00
2019-04-14T18:08:35.886Z,2.00
2019-04-14T18:11:18.303Z,2.00
2019-04-14T18:14:04.972Z,2.00
2019-04-14T18:16:37.985Z,2.00
2019-04-14T18:19:10.916Z,1.90
2019-04-14T18:21:39.488Z,1.90
2019-04-14T18:24:08.095Z,2.00
2019-04-14T18:26:36.560Z,2.00
2019-04-14T18:29:22.980Z,2.00
2019-04-14T18:31:53.089Z,2.00
2019-04-14T18:34:25.920Z,2.10
2019-04-14T18:37:01.807Z,2.10
2019-04-14T18:39:50.102Z,2.10
2019-04-14T18:42:20.261Z,2.10
2019-04-14T18:45:00.579Z,2.10
2019-04-14T18:47:39.529Z,2.20
2019-04-14T18:50:26.273Z,2.20
2019-04-14T18:52:59.262Z,2.10
2019-04-14T18:55:44.298Z,2.20
2019-04-14T18:58:29.395Z,2.20
2019-04-14T19:01:05.858Z,2.20
2019-04-14T19:03:34.340Z,2.20
2019-04-14T19:06:02.939Z,2.30
2019-04-14T19:08:31.450Z,2.20
2019-04-14T19:11:04.527Z,2.20
2019-04-14T19:13:34.560Z,2.20
2019-04-14T19:16:20.888Z,2.20
2019-04-14T19:18:54.004Z,2.30
2019-04-14T19:21:27.152Z,2.30
2019-04-14T19:23:55.620Z,2.30
2019-04-14T19:26:24.107Z,2.30
2019-04-14T19:28:52.596Z,2.30
2019-04-14T19:31:21.050Z,2.30
2019-04-14T19:33:49.534Z,2.30
2019-04-14T19:36:17.991Z,2.30
2019-04-14T19:38:46.592Z,2.30
2019-04-14T19:41:15.154Z,2.30
2019-04-14T19:43:43.682Z,2.30
2019-04-14T19:46:12.180Z,2.40
2019-04-14T19:48:40.693Z,2.30
2019-04-14T19:51:09.220Z,2.30
2019-04-14T19:53:37.810Z,2.30
2019-04-14T19:56:06.491Z,2.30
2019-04-14T19:58:34.955Z,2.30
2019-04-14T20:01:07.080Z,2.30
2019-04-14T20:03:34.662Z,2.40
2019-04-14T20:06:03.231Z,2.40
2019-04-14T20:08:31.704Z,2.40
2019-04-14T20:11:00.492Z,2.50
2019-04-14T20:13:30.609Z,2.50
2019-04-14T20:16:03.834Z,2.50
2019-04-14T20:18:50.120Z,2.50
2019-04-14T20:21:32.477Z,2.50
2019-04-14T20:24:02.590Z,2.50
2019-04-14T20:26:35.380Z,2.50
2019-04-14T20:29:05.560Z,2.50
2019-04-14T20:31:44.874Z,2.50
2019-04-14T20:34:13.420Z,2.50
2019-04-14T20:36:41.869Z,2.50
2019-04-14T20:39:12.023Z,2.50
2019-04-14T20:41:41.466Z,2.50
2019-04-14T20:44:09.976Z,2.50
2019-04-14T20:46:38.536Z,2.50
2019-04-14T20:49:07.152Z,2.50
2019-04-14T20:51:35.954Z,2.50
2019-04-14T20:54:04.930Z,2.50
2019-04-14T20:56:33.455Z,2.50
2019-04-14T20:59:02.408Z,2.50
2019-04-14T21:01:32.534Z,2.50
2019-04-14T21:04:08.465Z,2.50
2019-04-14T21:06:38.659Z,2.60
2019-04-14T21:09:15.434Z,2.50
2019-04-14T21:11:45.572Z,2.60
2019-04-14T21:14:24.664Z,2.60
2019-04-14T21:16:54.765Z,2.50
2019-04-14T21:19:41.124Z,2.60
2019-04-14T21:22:27.808Z,2.60
2019-04-14T21:24:57.912Z,2.50
2019-04-14T21:27:44.227Z,2.50
2019-04-14T21:30:15.256Z,2.50
2019-04-14T21:32:54.603Z,2.50
2019-04-14T21:35:42.944Z,2.50
2019-04-14T21:38:18.762Z,2.60
2019-04-14T21:40:51.400Z,2.60
2019-04-14T21:43:19.893Z,2.50
2019-04-14T21:45:48.438Z,2.50
2019-04-14T21:48:16.884Z,2.60
2019-04-14T21:50:45.390Z,2.50
2019-04-14T21:53:13.845Z,2.50
2019-04-14T21:55:42.358Z,2.60
2019-04-14T21:58:21.513Z,2.60
2019-04-14T22:01:06.636Z,2.50
2019-04-14T22:03:36.880Z,2.60
2019-04-14T22:06:07.048Z,2.60
2019-04-14T22:08:37.226Z,2.60
2019-04-14T22:11:13.806Z,2.60
2019-04-14T22:13:42.315Z,2.60
2019-04-14T22:16:10.859Z,2.60
2019-04-14T22:18:39.408Z,2.60
2019-04-14T22:21:07.884Z,2.60
2019-04-14T22:23:36.429Z,2.60
2019-04-14T22:26:05.728Z,2.60
2019-04-14T22:28:34.277Z,2.70
2019-04-14T22:31:02.897Z,2.60
2019-04-14T22:33:31.464Z,2.70
2019-04-14T22:35:59.938Z,2.70
2019-04-14T22:38:28.386Z,2.80
2019-04-14T22:40:56.933Z,2.70
2019-04-14T22:43:25.392Z,2.70
2019-04-14T22:45:53.875Z,2.70
2019-04-14T22:48:22.329Z,2.80
2019-04-14T22:50:50.901Z,2.70
2019-04-14T22:53:19.463Z,2.70
2019-04-14T22:55:48.068Z,2.80
2019-04-14T22:58:16.709Z,2.80
2019-04-14T23:00:46.976Z,2.90
2019-04-14T23:03:32.811Z,2.80
2019-04-14T23:06:02.950Z,2.80
2019-04-14T23:08:38.897Z,2.80
2019-04-14T23:11:14.825Z,2.80
2019-04-14T23:13:44.997Z,2.80
2019-04-14T23:16:17.840Z,2.80
2019-04-14T23:18:47.949Z,2.90
2019-04-14T23:21:27.249Z,2.90
2019-04-14T23:23:57.413Z,2.90
2019-04-14T23:26:25.916Z,2.90
2019-04-14T23:28:54.448Z,2.90
2019-04-14T23:31:22.914Z,2.90
2019-04-14T23:33:51.444Z,3.00
2019-04-14T23:36:19.973Z,3.00
2019-04-14T23:38:48.448Z,3.00
2019-04-14T23:41:17.082Z,3.00
2019-04-14T23:43:45.535Z,3.10
2019-04-14T23:46:14.122Z,3.10
2019-04-14T23:48:42.582Z,3.10
2019-04-14T23:51:11.060Z,3.00
2019-04-14T23:53:39.528Z,3.00
2019-04-14T23:56:08.172Z,3.00
2019-04-14T23:58:36.615Z,3.00
